Nearby METAR Reports

 

KOAK - Oakland, California, USA
Distance from station: SSW 6mi, 9km
Updated: Sun, 25-Aug-2019 12:53pm PDT
Few Clouds
Few Clouds
 Wind from WNW
Wind: WNW 14 mph , 22 km/h
Temperature: 73°F , 23°C
Dew Point: 59°F , 15°C
Humidity: 61%
Barometer: 29.99 inHg , 1015.6 hPa
Clouds: Few Clouds
Visibility: 10 miles , 16 km
Cloud details: Few Clouds 600 ft
2019/08/25 19:53 KOAK 251953Z 29012KT 10SM FEW006 23/15 A2999 RMK AO2 SLP157 T02330150
KHWD - Hayward, California, USA
Distance from station: SSE 8mi, 12km
Updated: Sun, 25-Aug-2019 12:54pm PDT
Clear
Clear
 Wind from WNW
Wind: WNW 9 mph , 15 km/h
Temperature: 79°F , 26°C
Dew Point: 61°F , 16°C
Humidity: 54%
Barometer: 29.98 inHg , 1015.2 hPa
Clouds: Clear
Visibility: 10 miles , 16 km
2019/08/25 19:54 KHWD 251954Z 29008KT 10SM CLR 26/16 A2998 RMK AO2 SLP160 T02560156
KSFO - San Francisco, California, USA
Distance from station: SW 15mi, 25km
Updated: Sun, 25-Aug-2019 12:56pm PDT
Few Clouds
Few Clouds
 Wind from WNW
Wind: WNW 20 mph , 31 km/h
Temperature: 70°F , 21°C
Dew Point: 57°F , 14°C
Humidity: 64%
Barometer: 29.99 inHg , 1015.6 hPa
Clouds: Few Clouds
Visibility: 10 miles , 16 km
Cloud details: Few Clouds 900 ft
2019/08/25 19:56 KSFO 251956Z 30017KT 10SM FEW009 21/14 A2999 RMK AO2 WSHFT 1851 SLP154 T02110139
 
KCCR - Concord, California, USA
Distance from station: NNE 17mi, 27km
Updated: Sun, 25-Aug-2019 12:53pm PDT
Clear
Clear
 Wind from NW
Wind: NW 14 mph , 22 km/h
Temperature: 90°F , 32°C
Dew Point: 55°F , 13°C
Humidity: 31%
Barometer: 29.94 inHg , 1013.9 hPa
Clouds: Clear
Visibility: 10 miles , 16 km
2019/08/25 19:53 KCCR 251953Z 31012KT 10SM CLR 32/13 A2994 RMK AO2 SLP127 T03220128 $
KSQL - San Carlos Airpo, California, USA
Distance from station: SSW 18mi, 29km
Updated: Sun, 25-Aug-2019 1:47pm PDT
Clear
Clear
 Wind from NNW
Wind: NNW 10 mph , 17 km/h
Temperature: 75°F , 24°C
Dew Point: 59°F , 15°C
Humidity: 57%
Barometer: 29.98 inHg , 1015.2 hPa
Clouds: Clear
Visibility: 10 miles , 16 km
2019/08/25 20:47 KSQL 252047Z 34009KT 10SM SKC 24/15 A2998
KLVK - Livermore, California, USA
Distance from station: ESE 20mi, 31km
Updated: Sun, 25-Aug-2019 12:53pm PDT
Clear
Clear
 Wind from W
Wind: W 8 mph , 13 km/h
Temperature: 93°F , 34°C
Dew Point: 52°F , 11°C
Humidity: 24%
Barometer: 29.94 inHg , 1013.9 hPa
Clouds: Clear
Visibility: 10 miles , 16 km
2019/08/25 19:53 KLVK 251953Z 27007KT 10SM CLR 34/11 A2994 RMK AO2 SLP136 T03440106
 
KPAO - Palo Alto, California, USA
Distance from station: S 21mi, 34km
Updated: Sun, 25-Aug-2019 12:47pm PDT
Clear
Clear
 Wind from N
Wind: N 10 mph , 17 km/h
Temperature: 75°F , 24°C
Dew Point: 64°F , 18°C
Humidity: 69%
Barometer: 29.98 inHg , 1015.2 hPa
Clouds: Clear
Visibility: 10 miles , 16 km
2019/08/25 19:47 KPAO 251947Z 35009KT 10SM SKC 24/18 A2998
KHAF - Half Moon Bay, California, USA
Distance from station: SW 25mi, 41km
Updated: Sun, 25-Aug-2019 1:40pm PDT
Overcast
Overcast
 Wind from NW
Wind: NW 10 mph , 17 km/h
Temperature: 63°F , 17°C
Dew Point: 59°F , 15°C
Humidity: 88%
Barometer: 30.03 inHg , 1016.9 hPa
Clouds: Overcast
Visibility: 10 miles , 16 km
Cloud details: Overcast 400 ft
2019/08/25 20:40 KHAF 252040Z AUTO 31009KT 10SM OVC004 17/15 A3003 RMK AO2
KNUQ - Moffett Nas/Mtn, California, USA
Distance from station: SSE 26mi, 42km
Updated: Sun, 25-Aug-2019 12:56pm PDT
Clear
Clear
 Wind from N
Wind: N 10 mph , 17 km/h
Temperature: 79°F , 26°C
Dew Point: 63°F , 17°C
Humidity: 58%
Barometer: 29.98 inHg , 1015.2 hPa
Clouds: Clear
Visibility: 10 miles , 16 km
2019/08/25 19:56 KNUQ 251956Z 35009KT 10SM CLR 26/17 A2998 RMK AO2 SLP153 T02560172
 
KAPC - Napa, California, USA
Distance from station: NNW 30mi, 49km
Updated: Sun, 25-Aug-2019 12:54pm PDT
Clear
Clear
 Wind from SW
Wind: SW 8 mph , 13 km/h
Temperature: 79°F , 26°C
Dew Point: 59°F , 15°C
Humidity: 51%
Barometer: 29.97 inHg , 1014.9 hPa
Clouds: Clear
Visibility: 10 miles , 16 km
2019/08/25 19:54 KAPC 251954Z 22007KT 10SM CLR 26/15 A2997 RMK AO2 SLP140 T02560150
KSJC - San Jose, California, USA
Distance from station: SSE 31mi, 50km
Updated: Sun, 25-Aug-2019 12:53pm PDT
Clear
Clear
 Wind from NW
Wind: NW 10 mph , 17 km/h
Temperature: 82°F , 28°C
Heat Index: 82°F , 28°C
Dew Point: 61°F , 16°C
Humidity: 48%
Barometer: 29.96 inHg , 1014.6 hPa
Clouds: Clear
Visibility: 10 miles , 16 km
2019/08/25 19:53 KSJC 251953Z 32009KT 10SM CLR 28/16 A2996 RMK AO2 SLP145 T02830161
KDVO - Novato/Gnoss Fld, California, USA
Distance from station: NW 34mi, 54km
Updated: Sun, 25-Aug-2019 1:35pm PDT
Clear
Clear
 Wind from N
Wind: N 14 mph , 22 km/h
Temperature: 91°F , 33°C
Dew Point: 59°F , 15°C
Humidity: 34%
Barometer: 29.95 inHg , 1014.2 hPa
Clouds: Clear
Visibility: 7 miles , 11 km
2019/08/25 20:35 KDVO 252035Z AUTO 35012KT 7SM CLR 33/15 A2995 RMK AO2
 
KRHV - San Jose/Reid, California, USA
Distance from station: SSE 37mi, 59km
Updated: Sun, 25-Aug-2019 1:47pm PDT
Clear
Clear
 Wind from WNW
Wind: WNW 9 mph , 15 km/h
Temperature: 86°F , 30°C
Heat Index: 87°F , 31°C
Dew Point: 63°F , 17°C
Humidity: 46%
Barometer: 29.96 inHg , 1014.6 hPa
Clouds: Clear
Visibility: 10 miles , 16 km
2019/08/25 20:47 KRHV 252047Z 30008KT 10SM SKC 30/17 A2996
KSUU - Travis Afb/Fairf, California, USA
Distance from station: NNE 37mi, 59km
Updated: Sun, 25-Aug-2019 12:58pm PDT
Clear
Clear
 Wind from SW
Wind: SW 14 mph , 22 km/h
Temperature: 95°F , 35°C
Dew Point: 54°F , 12°C
Humidity: 25%
Barometer: 29.93 inHg , 1013.5 hPa
Clouds: Clear
Visibility: 10 miles , 16 km
2019/08/25 19:58 KSUU 251958Z AUTO 23012KT 10SM CLR 35/12 A2993 RMK AO2 SLP141 T03450122
KO69 - Petaluma, California, USA
Distance from station: NW 41mi, 66km
Updated: Sun, 25-Aug-2019 1:35pm PDT
Clear
Clear
 Wind from WNW
Wind: WNW 10 mph , 17 km/h
Temperature: 84°F , 29°C
Dew Point: 55°F , 13°C
Humidity: 37%
Barometer: 29.98 inHg , 1015.2 hPa
Clouds: Clear
Visibility: 9 miles , 14 km
2019/08/25 20:35 KO69 252035Z AUTO 29009KT 9SM CLR 29/13 A2998 RMK A01
 
KVCB - Vacaville, California, USA
Distance from station: NNE 44mi, 71km
Updated: Sun, 25-Aug-2019 12:53pm PDT
Clear
Clear
 Wind from E
Wind: E 6 mph , 9 km/h
Temperature: 97°F , 36°C
Dew Point: 61°F , 16°C
Humidity: 30%
Barometer: 29.94 inHg , 1013.9 hPa
Clouds: Clear
Visibility: 10 miles , 16 km
2019/08/25 19:53 KVCB 251953Z AUTO 08005KT 10SM CLR 36/16 A2994 RMK AO2 SLP137 T03610156